createdAt,value
2017-07-21T00:00:02.916Z,17.81
2017-07-21T00:05:02.570Z,17.77
2017-07-21T00:10:02.762Z,17.75
2017-07-21T00:15:02.982Z,17.72
2017-07-21T00:20:02.961Z,17.67
2017-07-21T00:25:02.175Z,17.63
2017-07-21T00:30:02.392Z,17.59
2017-07-21T00:35:02.578Z,17.56
2017-07-21T00:40:02.847Z,17.54
2017-07-21T00:45:03.048Z,17.5
2017-07-21T00:50:03.031Z,17.46
2017-07-21T00:55:02.275Z,17.43
2017-07-21T01:00:02.472Z,17.36
2017-07-21T01:05:02.189Z,17.33
2017-07-21T01:10:02.444Z,17.32
2017-07-21T01:15:02.652Z,17.28
2017-07-21T01:20:02.304Z,17.21
2017-07-21T01:25:02.516Z,17.14
2017-07-21T01:30:02.751Z,17.09
2017-07-21T01:35:02.307Z,17.03
2017-07-21T01:40:02.526Z,16.96
2017-07-21T01:45:02.748Z,16.89
2017-07-21T01:50:02.771Z,16.81
2017-07-21T01:55:02.977Z,16.75
2017-07-21T02:00:02.184Z,16.7
2017-07-21T02:05:02.320Z,16.63
2017-07-21T02:10:02.537Z,16.58
2017-07-21T02:15:02.759Z,16.5
2017-07-21T02:20:02.385Z,16.45
2017-07-21T02:25:02.633Z,16.42
2017-07-21T02:30:02.841Z,16.36
2017-07-21T02:35:02.554Z,16.31
2017-07-21T02:40:02.783Z,16.25
2017-07-21T02:45:02.980Z,16.2
2017-07-21T02:50:02.197Z,16.15
2017-07-21T02:55:02.458Z,16.11
2017-07-21T03:00:02.612Z,16.04
2017-07-21T03:05:03.092Z,16
2017-07-21T03:10:02.299Z,15.95
2017-07-21T03:15:02.496Z,15.88
2017-07-21T03:20:03.079Z,15.87
2017-07-21T03:25:02.294Z,15.81
2017-07-21T03:30:02.464Z,15.81
2017-07-21T03:35:02.770Z,15.76
2017-07-21T03:40:02.997Z,15.69
2017-07-21T03:45:02.209Z,15.62
2017-07-21T03:50:03.124Z,15.57
2017-07-21T03:55:02.346Z,15.53
2017-07-21T04:00:02.552Z,15.52
2017-07-21T04:05:02.971Z,15.53
2017-07-21T04:10:02.194Z,15.6
2017-07-21T04:15:02.422Z,15.6
2017-07-21T04:20:03.062Z,15.63
2017-07-21T04:25:02.357Z,15.62
2017-07-21T04:30:02.320Z,15.61
2017-07-21T04:35:02.151Z,15.59
2017-07-21T04:40:02.357Z,15.59
2017-07-21T04:45:02.578Z,15.62
2017-07-21T04:50:02.248Z,15.69
2017-07-21T04:55:02.474Z,15.74
2017-07-21T05:00:02.640Z,15.76
2017-07-21T05:05:02.809Z,15.77
2017-07-21T05:10:03.023Z,15.71
2017-07-21T05:15:02.214Z,15.7
2017-07-21T05:20:02.773Z,15.8
2017-07-21T05:25:02.956Z,15.98
2017-07-21T05:30:02.151Z,16.21
2017-07-21T05:35:02.751Z,16.41
2017-07-21T05:40:02.951Z,16.59
2017-07-21T05:45:02.137Z,16.78
2017-07-21T05:50:02.439Z,16.91
2017-07-21T05:55:02.698Z,16.93
2017-07-21T06:00:02.910Z,16.91
2017-07-21T06:05:02.585Z,16.99
2017-07-21T06:10:02.815Z,17.03
2017-07-21T06:15:03.002Z,17.11
2017-07-21T06:20:02.702Z,17.18
2017-07-21T06:25:02.935Z,17.33
2017-07-21T06:30:02.165Z,17.55
2017-07-21T06:35:02.634Z,17.73
2017-07-21T06:40:02.900Z,17.73
2017-07-21T06:45:03.092Z,17.62
2017-07-21T06:50:02.660Z,17.56
2017-07-21T06:55:02.835Z,17.48
2017-07-21T07:00:03.069Z,17.54
2017-07-21T07:05:02.551Z,17.66
2017-07-21T07:10:02.787Z,17.78
2017-07-21T07:15:02.973Z,18.43
2017-07-21T07:20:02.500Z,19.16
2017-07-21T07:25:02.701Z,20.04
2017-07-21T07:30:02.873Z,20.76
2017-07-21T07:35:02.463Z,20.58
2017-07-21T07:40:02.713Z,20.24
2017-07-21T07:45:02.929Z,19.91
2017-07-21T07:50:03.041Z,19.55
2017-07-21T07:55:02.259Z,19.29
2017-07-21T08:00:02.510Z,19.17
2017-07-21T08:05:02.166Z,19.32
2017-07-21T08:10:02.374Z,19.45
2017-07-21T08:15:02.604Z,19.66
2017-07-21T08:20:02.551Z,19.88
2017-07-21T08:25:02.755Z,20.07
2017-07-21T08:30:02.955Z,20.17
2017-07-21T08:35:02.974Z,20.19
2017-07-21T08:40:02.204Z,20.31
2017-07-21T08:45:02.397Z,20.65
2017-07-21T08:50:02.367Z,21.42
2017-07-21T08:55:02.569Z,22.12
2017-07-21T09:00:02.777Z,23.06
2017-07-21T09:05:03.119Z,23.52
2017-07-21T09:10:02.317Z,23.52
2017-07-21T09:15:02.505Z,23.8
2017-07-21T09:20:02.209Z,23.02
2017-07-21T09:25:02.434Z,22.65
2017-07-21T09:30:02.660Z,23.69
2017-07-21T09:35:03.127Z,24.78
2017-07-21T09:40:02.344Z,25.81
2017-07-21T09:45:02.528Z,26.2
2017-07-21T09:50:02.187Z,24.77
2017-07-21T09:55:02.432Z,23.82
2017-07-21T10:00:02.633Z,24.32
2017-07-21T10:05:02.306Z,24.75
2017-07-21T10:10:02.501Z,24.44
2017-07-21T10:15:02.718Z,23.59
2017-07-21T10:20:02.431Z,23.3
2017-07-21T10:25:02.631Z,23.79
2017-07-21T10:30:02.914Z,23.73
2017-07-21T10:35:02.439Z,23.07
2017-07-21T10:40:02.647Z,22.29
2017-07-21T10:45:02.891Z,21.78
2017-07-21T10:50:02.451Z,22.1
2017-07-21T10:55:02.618Z,22.13
2017-07-21T11:00:02.824Z,22.04
2017-07-21T11:05:02.688Z,22.02
2017-07-21T11:10:03.050Z,22.23
2017-07-21T11:15:02.281Z,22.87
2017-07-21T11:20:02.531Z,22.94
2017-07-21T11:25:02.733Z,22.78
2017-07-21T11:30:02.880Z,22.73
2017-07-21T11:35:02.800Z,23.22
2017-07-21T11:40:03.027Z,23.64
2017-07-21T11:45:02.246Z,24.1
2017-07-21T11:50:02.801Z,24.73
2017-07-21T11:55:03.034Z,24.56
2017-07-21T12:00:02.199Z,24.06
2017-07-21T12:05:02.523Z,23.7
2017-07-21T12:10:02.745Z,23.96
2017-07-21T12:15:02.933Z,24.47
2017-07-21T12:20:02.833Z,24.83
2017-07-21T12:25:03.055Z,24.87
2017-07-21T12:30:02.233Z,24.29
2017-07-21T12:35:02.278Z,24.41
2017-07-21T12:40:02.498Z,24.73
2017-07-21T12:45:02.693Z,24.72
2017-07-21T12:50:02.923Z,24.38
2017-07-21T12:55:03.105Z,24.05
2017-07-21T13:00:02.318Z,24.16
2017-07-21T13:05:02.785Z,23.87
2017-07-21T13:10:02.977Z,23.88
2017-07-21T13:15:02.177Z,23.58
2017-07-21T13:20:02.838Z,23.27
2017-07-21T13:25:03.063Z,23.17
2017-07-21T13:30:02.269Z,23.45
2017-07-21T13:35:03.027Z,23.64
2017-07-21T13:40:02.271Z,23.67
2017-07-21T13:45:02.482Z,23.89
2017-07-21T13:50:02.248Z,24.12
2017-07-21T13:55:02.461Z,24.29
2017-07-21T14:00:02.650Z,24.2
2017-07-21T14:05:02.341Z,24.21
2017-07-21T14:10:02.574Z,24.27
2017-07-21T14:15:02.767Z,24.04
2017-07-21T14:20:02.363Z,23.89
2017-07-21T14:25:02.557Z,24.09
2017-07-21T14:30:02.739Z,24.3
2017-07-21T14:35:02.852Z,24.24
2017-07-21T14:40:03.126Z,24.34
2017-07-21T14:45:02.328Z,24.42
2017-07-21T14:50:02.869Z,24.41
2017-07-21T14:55:03.090Z,24.47
2017-07-21T15:00:02.282Z,24.57
2017-07-21T15:05:02.567Z,24.56
2017-07-21T15:10:02.835Z,24.71
2017-07-21T15:15:03.053Z,24.85
2017-07-21T15:20:02.630Z,24.83
2017-07-21T15:25:02.826Z,24.8
2017-07-21T15:30:03.052Z,24.55
2017-07-21T15:35:02.253Z,24.29
2017-07-21T15:40:02.474Z,24.2
2017-07-21T15:45:02.676Z,24.12
2017-07-21T15:50:02.888Z,24.01
2017-07-21T15:55:03.103Z,23.9
2017-07-21T16:00:02.265Z,23.79
2017-07-21T16:05:02.557Z,23.57
2017-07-21T16:10:02.766Z,23.29
2017-07-21T16:15:02.964Z,23.14
2017-07-21T16:20:03.140Z,23.03
2017-07-21T16:25:02.379Z,23.22
2017-07-21T16:30:02.586Z,23.37
2017-07-21T16:35:02.917Z,23.72
2017-07-21T16:40:03.172Z,23.96
2017-07-21T16:45:02.367Z,24.11
2017-07-21T16:50:03.058Z,23.9
2017-07-21T16:55:02.301Z,23.71
2017-07-21T17:00:02.522Z,23.6
2017-07-21T17:05:02.544Z,23.47
2017-07-21T17:10:02.762Z,23.34
2017-07-21T17:15:02.958Z,23.22
2017-07-21T17:20:02.716Z,23.12
2017-07-21T17:25:02.969Z,23.13
2017-07-21T17:30:02.178Z,23.1
2017-07-21T17:35:02.443Z,23.03
2017-07-21T17:40:02.633Z,22.95
2017-07-21T17:45:02.840Z,22.82
2017-07-21T17:50:02.794Z,22.73
2017-07-21T17:55:03.032Z,22.65
2017-07-21T18:00:02.235Z,22.58
2017-07-21T18:05:02.568Z,22.49
2017-07-21T18:10:02.810Z,22.36
2017-07-21T18:15:02.980Z,22.25
2017-07-21T18:20:02.491Z,22.14
2017-07-21T18:25:02.687Z,21.99
2017-07-21T18:30:02.873Z,21.85
2017-07-21T18:35:03.085Z,21.73
2017-07-21T18:40:02.330Z,21.63
2017-07-21T18:45:02.528Z,21.49
2017-07-21T18:50:03.109Z,21.34
2017-07-21T18:55:02.337Z,21.2
2017-07-21T19:00:02.596Z,21.06
2017-07-21T19:05:02.215Z,20.94
2017-07-21T19:10:02.442Z,20.8
2017-07-21T19:15:02.629Z,20.64
2017-07-21T19:20:02.458Z,20.49
2017-07-21T19:25:02.704Z,20.35
2017-07-21T19:30:02.866Z,20.19
2017-07-21T19:35:02.314Z,20.06
2017-07-21T19:40:02.513Z,19.92
2017-07-21T19:45:02.711Z,19.81
2017-07-21T19:50:03.134Z,19.68
2017-07-21T19:55:02.368Z,19.56
2017-07-21T20:00:02.540Z,19.47
2017-07-21T20:05:02.153Z,19.41
2017-07-21T20:10:02.409Z,19.35
2017-07-21T20:15:02.617Z,19.27
2017-07-21T20:20:02.974Z,19.2
2017-07-21T20:25:02.209Z,19.1
2017-07-21T20:30:02.400Z,19.02
2017-07-21T20:35:02.750Z,18.93
2017-07-21T20:40:02.954Z,18.85
2017-07-21T20:45:02.187Z,18.8
2017-07-21T20:50:02.917Z,18.76
2017-07-21T20:55:03.109Z,18.74
2017-07-21T21:00:02.301Z,18.73
2017-07-21T21:05:02.906Z,18.78
2017-07-21T21:10:03.084Z,18.74
2017-07-21T21:15:02.286Z,18.7
2017-07-21T21:20:02.975Z,18.65
2017-07-21T21:25:02.190Z,18.55
2017-07-21T21:30:02.368Z,18.49
2017-07-21T21:35:02.558Z,18.43
2017-07-21T21:40:02.800Z,18.37
2017-07-21T21:45:02.983Z,18.25
2017-07-21T21:50:02.860Z,18.17
2017-07-21T21:55:03.086Z,18.07
2017-07-21T22:00:02.401Z,17.99
2017-07-21T22:05:02.985Z,17.93
2017-07-21T22:10:02.183Z,17.83
2017-07-21T22:15:02.417Z,17.74
2017-07-21T22:20:02.490Z,17.64
2017-07-21T22:25:02.718Z,17.49
2017-07-21T22:30:02.908Z,17.39
2017-07-21T22:35:02.194Z,17.36
2017-07-21T22:40:02.432Z,17.33
2017-07-21T22:45:02.639Z,17.25
2017-07-21T22:50:02.176Z,17.22
2017-07-21T22:55:02.368Z,17.17
2017-07-21T23:00:02.590Z,17.14
2017-07-21T23:05:02.548Z,17.1
2017-07-21T23:10:02.745Z,17.05
2017-07-21T23:15:02.918Z,17
2017-07-21T23:20:02.772Z,16.93
2017-07-21T23:25:02.974Z,16.89
2017-07-21T23:30:02.157Z,16.87
2017-07-21T23:35:02.429Z,16.87
2017-07-21T23:40:02.697Z,16.87
2017-07-21T23:45:02.878Z,16.86
2017-07-21T23:50:02.795Z,16.85
2017-07-21T23:55:02.995Z,16.84
